sensor_id;sensor_type;location;lat;lon;timestamp;P1;durP1;ratioP1;P2;durP2;ratioP2
43146;SDS011;28752;48.266;7.402;2022-07-09T00:01:38;1.88;;;1.17;;
43146;SDS011;28752;48.266;7.402;2022-07-09T00:04:03;3.40;;;1.00;;
43146;SDS011;28752;48.266;7.402;2022-07-09T00:06:30;2.47;;;1.40;;
43146;SDS011;28752;48.266;7.402;2022-07-09T00:08:56;2.75;;;1.00;;
43146;SDS011;28752;48.266;7.402;2022-07-09T00:13:48;3.30;;;1.30;;
43146;SDS011;28752;48.266;7.402;2022-07-09T00:16:14;3.47;;;1.67;;
43146;SDS011;28752;48.266;7.402;2022-07-09T00:18:39;2.80;;;1.10;;
43146;SDS011;28752;48.266;7.402;2022-07-09T00:21:04;2.23;;;1.13;;
43146;SDS011;28752;48.266;7.402;2022-07-09T00:23:30;3.20;;;1.27;;
43146;SDS011;28752;48.266;7.402;2022-07-09T00:25:56;2.15;;;1.10;;
43146;SDS011;28752;48.266;7.402;2022-07-09T00:28:21;1.90;;;1.00;;
43146;SDS011;28752;48.266;7.402;2022-07-09T00:30:47;2.60;;;1.20;;
43146;SDS011;28752;48.266;7.402;2022-07-09T00:33:12;2.30;;;1.40;;
43146;SDS011;28752;48.266;7.402;2022-07-09T00:35:37;2.50;;;1.10;;
43146;SDS011;28752;48.266;7.402;2022-07-09T00:38:03;1.83;;;1.20;;
43146;SDS011;28752;48.266;7.402;2022-07-09T00:40:28;2.20;;;1.30;;
43146;SDS011;28752;48.266;7.402;2022-07-09T00:42:54;3.90;;;1.25;;
43146;SDS011;28752;48.266;7.402;2022-07-09T00:45:20;2.43;;;1.17;;
43146;SDS011;28752;48.266;7.402;2022-07-09T00:47:45;2.47;;;1.13;;
43146;SDS011;28752;48.266;7.402;2022-07-09T00:50:11;3.43;;;1.40;;
43146;SDS011;28752;48.266;7.402;2022-07-09T00:52:36;3.72;;;1.58;;
43146;SDS011;28752;48.266;7.402;2022-07-09T00:55:04;2.05;;;1.10;;
43146;SDS011;28752;48.266;7.402;2022-07-09T00:57:31;2.97;;;1.40;;
43146;SDS011;28752;48.266;7.402;2022-07-09T01:02:23;4.25;;;1.40;;
43146;SDS011;28752;48.266;7.402;2022-07-09T01:04:50;3.83;;;1.60;;
43146;SDS011;28752;48.266;7.402;2022-07-09T01:07:15;7.28;;;1.60;;
43146;SDS011;28752;48.266;7.402;2022-07-09T01:09:41;3.88;;;1.30;;
43146;SDS011;28752;48.266;7.402;2022-07-09T01:12:07;1.97;;;1.03;;
43146;SDS011;28752;48.266;7.402;2022-07-09T01:14:32;2.20;;;1.10;;
43146;SDS011;28752;48.266;7.402;2022-07-09T01:16:59;3.20;;;1.60;;
43146;SDS011;28752;48.266;7.402;2022-07-09T01:19:28;2.78;;;1.42;;
43146;SDS011;28752;48.266;7.402;2022-07-09T01:21:55;2.33;;;1.23;;
43146;SDS011;28752;48.266;7.402;2022-07-09T01:24:21;2.75;;;1.48;;
43146;SDS011;28752;48.266;7.402;2022-07-09T01:26:46;2.65;;;1.65;;
43146;SDS011;28752;48.266;7.402;2022-07-09T01:34:03;3.53;;;1.60;;
43146;SDS011;28752;48.266;7.402;2022-07-09T01:36:30;1.97;;;0.90;;
43146;SDS011;28752;48.266;7.402;2022-07-09T01:38:55;2.90;;;1.33;;
43146;SDS011;28752;48.266;7.402;2022-07-09T01:41:21;3.47;;;1.60;;
43146;SDS011;28752;48.266;7.402;2022-07-09T01:43:46;2.43;;;1.23;;
43146;SDS011;28752;48.266;7.402;2022-07-09T01:46:12;3.40;;;1.90;;
43146;SDS011;28752;48.266;7.402;2022-07-09T01:48:37;3.30;;;1.30;;
43146;SDS011;28752;48.266;7.402;2022-07-09T01:55:58;3.28;;;1.23;;
43146;SDS011;28752;48.266;7.402;2022-07-09T01:58:23;2.77;;;1.17;;
43146;SDS011;28752;48.266;7.402;2022-07-09T02:00:49;2.23;;;1.20;;
43146;SDS011;28752;48.266;7.402;2022-07-09T02:03:14;3.30;;;1.13;;
43146;SDS011;28752;48.266;7.402;2022-07-09T02:05:41;3.90;;;1.20;;
43146;SDS011;28752;48.266;7.402;2022-07-09T02:08:06;3.40;;;1.57;;
43146;SDS011;28752;48.266;7.402;2022-07-09T02:10:32;3.77;;;1.40;;
43146;SDS011;28752;48.266;7.402;2022-07-09T02:12:57;3.50;;;1.50;;
43146;SDS011;28752;48.266;7.402;2022-07-09T02:15:23;2.00;;;0.90;;
43146;SDS011;28752;48.266;7.402;2022-07-09T02:17:48;2.43;;;1.40;;
43146;SDS011;28752;48.266;7.402;2022-07-09T02:20:13;2.40;;;1.13;;
43146;SDS011;28752;48.266;7.402;2022-07-09T02:22:39;2.90;;;1.17;;
43146;SDS011;28752;48.266;7.402;2022-07-09T02:25:04;3.23;;;1.43;;
43146;SDS011;28752;48.266;7.402;2022-07-09T02:27:30;3.67;;;1.27;;
43146;SDS011;28752;48.266;7.402;2022-07-09T02:29:56;3.67;;;1.30;;
43146;SDS011;28752;48.266;7.402;2022-07-09T02:32:21;2.97;;;1.33;;
43146;SDS011;28752;48.266;7.402;2022-07-09T02:34:46;1.93;;;1.03;;
43146;SDS011;28752;48.266;7.402;2022-07-09T02:37:12;4.73;;;1.83;;
43146;SDS011;28752;48.266;7.402;2022-07-09T02:39:37;5.70;;;1.40;;
43146;SDS011;28752;48.266;7.402;2022-07-09T02:42:03;3.07;;;1.40;;
43146;SDS011;28752;48.266;7.402;2022-07-09T02:44:28;3.03;;;1.42;;
43146;SDS011;28752;48.266;7.402;2022-07-09T02:46:54;4.72;;;1.35;;
43146;SDS011;28752;48.266;7.402;2022-07-09T02:49:20;2.43;;;1.30;;
43146;SDS011;28752;48.266;7.402;2022-07-09T02:51:46;3.63;;;1.70;;
43146;SDS011;28752;48.266;7.402;2022-07-09T02:54:12;2.70;;;1.33;;
43146;SDS011;28752;48.266;7.402;2022-07-09T02:56:37;4.07;;;1.60;;
43146;SDS011;28752;48.266;7.402;2022-07-09T02:59:03;2.30;;;1.17;;
43146;SDS011;28752;48.266;7.402;2022-07-09T03:01:28;2.27;;;1.17;;
43146;SDS011;28752;48.266;7.402;2022-07-09T03:03:54;3.20;;;1.65;;
43146;SDS011;28752;48.266;7.402;2022-07-09T03:06:19;2.92;;;1.30;;
43146;SDS011;28752;48.266;7.402;2022-07-09T03:08:45;3.42;;;1.40;;
43146;SDS011;28752;48.266;7.402;2022-07-09T03:11:10;3.77;;;1.53;;
43146;SDS011;28752;48.266;7.402;2022-07-09T03:13:36;7.97;;;1.70;;
43146;SDS011;28752;48.266;7.402;2022-07-09T03:16:02;2.88;;;1.40;;
43146;SDS011;28752;48.266;7.402;2022-07-09T03:18:29;5.10;;;2.10;;
43146;SDS011;28752;48.266;7.402;2022-07-09T03:20:55;3.35;;;1.60;;
43146;SDS011;28752;48.266;7.402;2022-07-09T03:23:21;3.88;;;1.20;;
43146;SDS011;28752;48.266;7.402;2022-07-09T03:25:46;3.42;;;1.58;;
43146;SDS011;28752;48.266;7.402;2022-07-09T03:28:12;3.33;;;1.38;;
43146;SDS011;28752;48.266;7.402;2022-07-09T03:30:38;2.53;;;1.27;;
43146;SDS011;28752;48.266;7.402;2022-07-09T03:33:03;3.67;;;1.60;;
43146;SDS011;28752;48.266;7.402;2022-07-09T03:35:28;3.47;;;1.57;;
43146;SDS011;28752;48.266;7.402;2022-07-09T03:42:46;3.20;;;1.23;;
43146;SDS011;28752;48.266;7.402;2022-07-09T03:45:11;3.13;;;1.30;;
43146;SDS011;28752;48.266;7.402;2022-07-09T03:47:37;3.20;;;1.60;;
43146;SDS011;28752;48.266;7.402;2022-07-09T03:50:02;3.70;;;1.17;;
43146;SDS011;28752;48.266;7.402;2022-07-09T03:52:29;3.17;;;1.38;;
43146;SDS011;28752;48.266;7.402;2022-07-09T03:54:54;2.77;;;1.47;;
43146;SDS011;28752;48.266;7.402;2022-07-09T03:57:20;2.17;;;1.33;;
43146;SDS011;28752;48.266;7.402;2022-07-09T03:59:45;3.10;;;1.40;;
43146;SDS011;28752;48.266;7.402;2022-07-09T04:02:11;2.70;;;1.10;;
43146;SDS011;28752;48.266;7.402;2022-07-09T04:04:37;6.40;;;1.60;;
43146;SDS011;28752;48.266;7.402;2022-07-09T04:07:02;2.95;;;1.20;;
43146;SDS011;28752;48.266;7.402;2022-07-09T04:09:28;3.40;;;1.45;;
43146;SDS011;28752;48.266;7.402;2022-07-09T04:11:53;2.97;;;1.30;;
43146;SDS011;28752;48.266;7.402;2022-07-09T04:14:18;3.07;;;1.40;;
43146;SDS011;28752;48.266;7.402;2022-07-09T04:16:45;3.60;;;1.70;;
43146;SDS011;28752;48.266;7.402;2022-07-09T04:19:13;3.40;;;1.50;;
43146;SDS011;28752;48.266;7.402;2022-07-09T04:21:39;3.93;;;1.50;;
43146;SDS011;28752;48.266;7.402;2022-07-09T04:24:05;4.47;;;1.73;;
43146;SDS011;28752;48.266;7.402;2022-07-09T04:26:30;2.57;;;1.33;;
43146;SDS011;28752;48.266;7.402;2022-07-09T04:28:56;4.90;;;1.20;;
43146;SDS011;28752;48.266;7.402;2022-07-09T04:31:21;4.60;;;1.47;;
43146;SDS011;28752;48.266;7.402;2022-07-09T04:33:47;3.47;;;1.20;;
43146;SDS011;28752;48.266;7.402;2022-07-09T04:36:13;2.40;;;1.40;;
43146;SDS011;28752;48.266;7.402;2022-07-09T04:38:38;3.13;;;1.40;;
43146;SDS011;28752;48.266;7.402;2022-07-09T04:41:04;3.83;;;1.67;;
43146;SDS011;28752;48.266;7.402;2022-07-09T04:43:29;2.78;;;1.27;;
43146;SDS011;28752;48.266;7.402;2022-07-09T04:45:55;3.72;;;1.27;;
43146;SDS011;28752;48.266;7.402;2022-07-09T04:48:21;1.75;;;1.15;;
43146;SDS011;28752;48.266;7.402;2022-07-09T04:50:47;4.03;;;1.60;;
43146;SDS011;28752;48.266;7.402;2022-07-09T04:53:12;2.60;;;1.35;;
43146;SDS011;28752;48.266;7.402;2022-07-09T04:55:38;3.78;;;1.30;;
43146;SDS011;28752;48.266;7.402;2022-07-09T04:58:03;2.87;;;1.53;;
43146;SDS011;28752;48.266;7.402;2022-07-09T05:00:28;3.23;;;1.53;;
43146;SDS011;28752;48.266;7.402;2022-07-09T05:02:55;2.65;;;1.30;;
43146;SDS011;28752;48.266;7.402;2022-07-09T05:05:21;1.97;;;1.00;;
43146;SDS011;28752;48.266;7.402;2022-07-09T05:07:50;3.42;;;1.40;;
43146;SDS011;28752;48.266;7.402;2022-07-09T05:10:16;6.38;;;1.73;;
43146;SDS011;28752;48.266;7.402;2022-07-09T05:12:42;3.30;;;1.60;;
43146;SDS011;28752;48.266;7.402;2022-07-09T05:15:08;2.43;;;1.10;;
43146;SDS011;28752;48.266;7.402;2022-07-09T05:17:35;4.07;;;1.27;;
43146;SDS011;28752;48.266;7.402;2022-07-09T05:20:02;2.40;;;1.30;;
43146;SDS011;28752;48.266;7.402;2022-07-09T05:22:31;2.30;;;1.20;;
43146;SDS011;28752;48.266;7.402;2022-07-09T05:24:57;2.78;;;1.50;;
43146;SDS011;28752;48.266;7.402;2022-07-09T05:27:23;3.53;;;1.05;;
43146;SDS011;28752;48.266;7.402;2022-07-09T05:29:49;2.38;;;1.13;;
43146;SDS011;28752;48.266;7.402;2022-07-09T05:34:40;2.80;;;1.40;;
43146;SDS011;28752;48.266;7.402;2022-07-09T05:37:06;3.35;;;1.40;;
43146;SDS011;28752;48.266;7.402;2022-07-09T05:39:32;3.10;;;1.80;;
43146;SDS011;28752;48.266;7.402;2022-07-09T05:41:57;3.85;;;1.88;;
43146;SDS011;28752;48.266;7.402;2022-07-09T05:44:23;3.25;;;1.52;;
43146;SDS011;28752;48.266;7.402;2022-07-09T05:46:49;2.30;;;1.20;;
43146;SDS011;28752;48.266;7.402;2022-07-09T05:49:14;2.90;;;1.40;;
43146;SDS011;28752;48.266;7.402;2022-07-09T05:51:39;2.70;;;1.40;;
43146;SDS011;28752;48.266;7.402;2022-07-09T05:54:05;3.47;;;1.85;;
43146;SDS011;28752;48.266;7.402;2022-07-09T05:56:31;3.20;;;1.60;;
43146;SDS011;28752;48.266;7.402;2022-07-09T05:58:57;3.15;;;1.73;;
43146;SDS011;28752;48.266;7.402;2022-07-09T06:01:23;2.88;;;1.27;;
43146;SDS011;28752;48.266;7.402;2022-07-09T06:03:48;2.90;;;1.40;;
43146;SDS011;28752;48.266;7.402;2022-07-09T06:06:14;2.63;;;1.38;;
43146;SDS011;28752;48.266;7.402;2022-07-09T06:11:04;1.63;;;0.90;;
43146;SDS011;28752;48.266;7.402;2022-07-09T06:13:30;5.47;;;1.50;;
43146;SDS011;28752;48.266;7.402;2022-07-09T06:15:55;1.95;;;1.00;;
43146;SDS011;28752;48.266;7.402;2022-07-09T06:18:21;2.97;;;1.23;;
43146;SDS011;28752;48.266;7.402;2022-07-09T06:20:49;2.38;;;1.20;;
43146;SDS011;28752;48.266;7.402;2022-07-09T06:23:15;4.00;;;1.10;;
43146;SDS011;28752;48.266;7.402;2022-07-09T06:25:40;2.58;;;1.00;;
43146;SDS011;28752;48.266;7.402;2022-07-09T06:28:06;3.30;;;1.15;;
43146;SDS011;28752;48.266;7.402;2022-07-09T06:30:32;1.67;;;0.98;;
43146;SDS011;28752;48.266;7.402;2022-07-09T06:32:59;2.00;;;1.00;;
43146;SDS011;28752;48.266;7.402;2022-07-09T06:35:25;3.35;;;1.27;;
43146;SDS011;28752;48.266;7.402;2022-07-09T06:37:51;3.00;;;1.27;;
43146;SDS011;28752;48.266;7.402;2022-07-09T06:40:16;1.63;;;1.10;;
43146;SDS011;28752;48.266;7.402;2022-07-09T06:42:42;1.95;;;1.00;;
43146;SDS011;28752;48.266;7.402;2022-07-09T06:45:07;3.50;;;1.25;;
43146;SDS011;28752;48.266;7.402;2022-07-09T06:47:33;2.47;;;1.25;;
43146;SDS011;28752;48.266;7.402;2022-07-09T06:52:25;3.40;;;1.48;;
43146;SDS011;28752;48.266;7.402;2022-07-09T06:54:50;1.85;;;1.02;;
43146;SDS011;28752;48.266;7.402;2022-07-09T06:57:16;3.75;;;1.27;;
43146;SDS011;28752;48.266;7.402;2022-07-09T06:59:42;3.42;;;1.30;;
43146;SDS011;28752;48.266;7.402;2022-07-09T07:02:10;2.60;;;1.30;;
43146;SDS011;28752;48.266;7.402;2022-07-09T07:04:35;2.58;;;1.08;;
43146;SDS011;28752;48.266;7.402;2022-07-09T07:07:01;3.40;;;1.13;;
43146;SDS011;28752;48.266;7.402;2022-07-09T07:09:26;2.33;;;1.17;;
43146;SDS011;28752;48.266;7.402;2022-07-09T07:11:52;1.67;;;1.00;;
43146;SDS011;28752;48.266;7.402;2022-07-09T07:14:17;2.83;;;1.42;;
43146;SDS011;28752;48.266;7.402;2022-07-09T07:16:43;3.47;;;1.45;;
43146;SDS011;28752;48.266;7.402;2022-07-09T07:19:09;4.10;;;1.20;;
43146;SDS011;28752;48.266;7.402;2022-07-09T07:21:35;2.80;;;1.10;;
43146;SDS011;28752;48.266;7.402;2022-07-09T07:24:01;3.35;;;1.30;;
43146;SDS011;28752;48.266;7.402;2022-07-09T07:26:27;3.83;;;1.60;;
43146;SDS011;28752;48.266;7.402;2022-07-09T07:28:52;3.83;;;1.50;;
43146;SDS011;28752;48.266;7.402;2022-07-09T07:31:19;3.03;;;1.45;;
43146;SDS011;28752;48.266;7.402;2022-07-09T07:33:44;2.50;;;1.20;;
43146;SDS011;28752;48.266;7.402;2022-07-09T07:36:10;4.90;;;2.17;;
43146;SDS011;28752;48.266;7.402;2022-07-09T07:38:35;2.47;;;1.42;;
43146;SDS011;28752;48.266;7.402;2022-07-09T07:41:00;2.10;;;1.23;;
43146;SDS011;28752;48.266;7.402;2022-07-09T07:43:26;4.20;;;1.58;;
43146;SDS011;28752;48.266;7.402;2022-07-09T07:45:51;2.72;;;1.48;;
43146;SDS011;28752;48.266;7.402;2022-07-09T07:48:17;2.20;;;1.23;;
43146;SDS011;28752;48.266;7.402;2022-07-09T07:50:42;3.75;;;1.40;;
43146;SDS011;28752;48.266;7.402;2022-07-09T07:53:08;2.40;;;1.10;;
43146;SDS011;28752;48.266;7.402;2022-07-09T07:55:33;4.55;;;1.42;;
43146;SDS011;28752;48.266;7.402;2022-07-09T07:57:59;2.65;;;1.17;;
43146;SDS011;28752;48.266;7.402;2022-07-09T08:00:24;1.92;;;1.00;;
43146;SDS011;28752;48.266;7.402;2022-07-09T08:02:50;2.17;;;1.02;;
43146;SDS011;28752;48.266;7.402;2022-07-09T08:05:15;5.75;;;1.50;;
43146;SDS011;28752;48.266;7.402;2022-07-09T08:07:41;2.17;;;1.15;;
43146;SDS011;28752;48.266;7.402;2022-07-09T08:10:07;5.63;;;1.98;;
43146;SDS011;28752;48.266;7.402;2022-07-09T08:12:33;2.33;;;1.00;;
43146;SDS011;28752;48.266;7.402;2022-07-09T08:14:58;1.85;;;0.93;;
43146;SDS011;28752;48.266;7.402;2022-07-09T08:17:24;2.33;;;0.95;;
43146;SDS011;28752;48.266;7.402;2022-07-09T08:19:50;2.85;;;1.40;;
43146;SDS011;28752;48.266;7.402;2022-07-09T08:22:16;1.48;;;0.90;;
43146;SDS011;28752;48.266;7.402;2022-07-09T08:24:41;2.35;;;0.93;;
43146;SDS011;28752;48.266;7.402;2022-07-09T08:27:07;2.53;;;1.08;;
43146;SDS011;28752;48.266;7.402;2022-07-09T08:29:32;3.05;;;1.02;;
43146;SDS011;28752;48.266;7.402;2022-07-09T08:31:58;3.03;;;1.00;;
43146;SDS011;28752;48.266;7.402;2022-07-09T08:34:24;2.53;;;1.02;;
43146;SDS011;28752;48.266;7.402;2022-07-09T08:36:49;2.92;;;1.20;;
43146;SDS011;28752;48.266;7.402;2022-07-09T08:44:06;3.33;;;1.33;;
43146;SDS011;28752;48.266;7.402;2022-07-09T08:46:35;2.15;;;1.13;;
43146;SDS011;28752;48.266;7.402;2022-07-09T08:51:28;1.33;;;1.00;;
43146;SDS011;28752;48.266;7.402;2022-07-09T08:53:55;4.53;;;1.23;;
43146;SDS011;28752;48.266;7.402;2022-07-09T08:58:46;2.42;;;1.10;;
43146;SDS011;28752;48.266;7.402;2022-07-09T09:03:39;1.73;;;0.80;;
43146;SDS011;28752;48.266;7.402;2022-07-09T09:06:07;1.90;;;0.93;;
43146;SDS011;28752;48.266;7.402;2022-07-09T09:08:35;2.63;;;1.10;;
43146;SDS011;28752;48.266;7.402;2022-07-09T09:11:04;2.67;;;1.00;;
43146;SDS011;28752;48.266;7.402;2022-07-09T09:13:44;2.50;;;0.82;;
43146;SDS011;28752;48.266;7.402;2022-07-09T09:16:11;1.73;;;1.10;;
43146;SDS011;28752;48.266;7.402;2022-07-09T09:18:41;1.33;;;0.80;;
43146;SDS011;28752;48.266;7.402;2022-07-09T09:21:10;1.88;;;0.90;;
43146;SDS011;28752;48.266;7.402;2022-07-09T09:23:40;1.70;;;0.88;;
43146;SDS011;28752;48.266;7.402;2022-07-09T09:26:07;2.40;;;0.90;;
43146;SDS011;28752;48.266;7.402;2022-07-09T09:33:55;1.80;;;0.80;;
43146;SDS011;28752;48.266;7.402;2022-07-09T09:36:37;2.72;;;0.95;;
43146;SDS011;28752;48.266;7.402;2022-07-09T09:39:10;1.17;;;0.65;;
43146;SDS011;28752;48.266;7.402;2022-07-09T09:41:50;1.88;;;0.65;;
43146;SDS011;28752;48.266;7.402;2022-07-09T09:44:17;1.40;;;0.70;;
43146;SDS011;28752;48.266;7.402;2022-07-09T09:46:48;2.30;;;0.80;;
43146;SDS011;28752;48.266;7.402;2022-07-09T09:54:21;1.40;;;0.70;;
43146;SDS011;28752;48.266;7.402;2022-07-09T09:59:14;1.40;;;0.70;;
43146;SDS011;28752;48.266;7.402;2022-07-09T10:01:41;1.75;;;0.82;;
43146;SDS011;28752;48.266;7.402;2022-07-09T10:04:11;1.65;;;0.60;;
43146;SDS011;28752;48.266;7.402;2022-07-09T10:06:38;1.45;;;0.75;;
43146;SDS011;28752;48.266;7.402;2022-07-09T10:09:08;1.45;;;0.90;;
43146;SDS011;28752;48.266;7.402;2022-07-09T10:11:40;1.95;;;0.95;;
43146;SDS011;28752;48.266;7.402;2022-07-09T10:14:05;1.20;;;0.70;;
43146;SDS011;28752;48.266;7.402;2022-07-09T10:16:33;1.52;;;0.68;;
43146;SDS011;28752;48.266;7.402;2022-07-09T10:19:02;1.92;;;0.60;;
43146;SDS011;28752;48.266;7.402;2022-07-09T10:23:57;1.90;;;0.70;;
43146;SDS011;28752;48.266;7.402;2022-07-09T10:26:23;2.58;;;0.88;;
43146;SDS011;28752;48.266;7.402;2022-07-09T10:29:16;1.58;;;0.70;;
43146;SDS011;28752;48.266;7.402;2022-07-09T10:31:46;1.75;;;0.73;;
43146;SDS011;28752;48.266;7.402;2022-07-09T10:34:16;0.88;;;0.68;;
43146;SDS011;28752;48.266;7.402;2022-07-09T10:37:01;1.33;;;0.70;;
43146;SDS011;28752;48.266;7.402;2022-07-09T10:39:27;1.45;;;0.70;;
43146;SDS011;28752;48.266;7.402;2022-07-09T10:42:17;0.63;;;0.55;;
43146;SDS011;28752;48.266;7.402;2022-07-09T10:44:47;1.17;;;0.65;;
43146;SDS011;28752;48.266;7.402;2022-07-09T10:47:16;3.67;;;1.35;;
43146;SDS011;28752;48.266;7.402;2022-07-09T10:49:42;1.65;;;0.60;;
43146;SDS011;28752;48.266;7.402;2022-07-09T10:57:01;1.00;;;0.55;;
43146;SDS011;28752;48.266;7.402;2022-07-09T10:59:26;1.35;;;0.50;;
43146;SDS011;28752;48.266;7.402;2022-07-09T11:04:24;2.03;;;0.60;;
43146;SDS011;28752;48.266;7.402;2022-07-09T11:06:49;1.00;;;0.57;;
43146;SDS011;28752;48.266;7.402;2022-07-09T11:11:43;0.98;;;0.50;;
43146;SDS011;28752;48.266;7.402;2022-07-09T11:14:10;0.98;;;0.47;;
43146;SDS011;28752;48.266;7.402;2022-07-09T11:19:17;1.65;;;0.43;;
43146;SDS011;28752;48.266;7.402;2022-07-09T11:21:45;1.10;;;0.40;;
43146;SDS011;28752;48.266;7.402;2022-07-09T11:26:48;0.73;;;0.57;;
43146;SDS011;28752;48.266;7.402;2022-07-09T11:31:48;1.65;;;0.57;;
43146;SDS011;28752;48.266;7.402;2022-07-09T11:34:15;6.63;;;0.70;;
43146;SDS011;28752;48.266;7.402;2022-07-09T11:36:47;1.52;;;0.70;;
43146;SDS011;28752;48.266;7.402;2022-07-09T11:39:25;1.17;;;0.70;;
43146;SDS011;28752;48.266;7.402;2022-07-09T11:41:51;0.60;;;0.50;;
43146;SDS011;28752;48.266;7.402;2022-07-09T11:47:30;0.82;;;0.65;;
43146;SDS011;28752;48.266;7.402;2022-07-09T11:49:47;1.70;;;0.63;;
43146;SDS011;28752;48.266;7.402;2022-07-09T11:52:22;9.23;;;1.00;;
43146;SDS011;28752;48.266;7.402;2022-07-09T11:54:58;1.05;;;0.50;;
43146;SDS011;28752;48.266;7.402;2022-07-09T11:57:30;2.08;;;0.70;;
43146;SDS011;28752;48.266;7.402;2022-07-09T11:59:58;2.22;;;0.90;;
43146;SDS011;28752;48.266;7.402;2022-07-09T12:04:56;2.38;;;0.73;;
43146;SDS011;28752;48.266;7.402;2022-07-09T12:07:22;0.93;;;0.60;;
43146;SDS011;28752;48.266;7.402;2022-07-09T12:12:23;1.13;;;0.63;;
43146;SDS011;28752;48.266;7.402;2022-07-09T12:14:49;1.02;;;0.50;;
43146;SDS011;28752;48.266;7.402;2022-07-09T12:19:44;2.28;;;0.82;;
43146;SDS011;28752;48.266;7.402;2022-07-09T12:27:01;1.65;;;0.63;;
43146;SDS011;28752;48.266;7.402;2022-07-09T12:29:26;2.08;;;0.73;;
43146;SDS011;28752;48.266;7.402;2022-07-09T12:34:17;1.40;;;0.70;;
43146;SDS011;28752;48.266;7.402;2022-07-09T12:39:08;0.90;;;0.57;;
43146;SDS011;28752;48.266;7.402;2022-07-09T12:41:33;1.17;;;0.70;;
43146;SDS011;28752;48.266;7.402;2022-07-09T12:46:25;1.20;;;0.68;;
43146;SDS011;28752;48.266;7.402;2022-07-09T12:51:16;1.63;;;0.80;;
43146;SDS011;28752;48.266;7.402;2022-07-09T12:56:06;1.23;;;0.80;;
43146;SDS011;28752;48.266;7.402;2022-07-09T13:00:57;1.30;;;0.70;;
43146;SDS011;28752;48.266;7.402;2022-07-09T13:05:48;1.63;;;0.83;;
43146;SDS011;28752;48.266;7.402;2022-07-09T13:10:38;2.33;;;0.80;;
43146;SDS011;28752;48.266;7.402;2022-07-09T13:15:29;4.10;;;0.93;;
43146;SDS011;28752;48.266;7.402;2022-07-09T13:20:20;2.28;;;0.90;;
43146;SDS011;28752;48.266;7.402;2022-07-09T13:25:11;2.60;;;1.33;;
43146;SDS011;28752;48.266;7.402;2022-07-09T13:30:02;1.17;;;0.70;;
43146;SDS011;28752;48.266;7.402;2022-07-09T13:34:53;2.55;;;0.90;;
43146;SDS011;28752;48.266;7.402;2022-07-09T13:39:44;0.80;;;0.55;;
43146;SDS011;28752;48.266;7.402;2022-07-09T13:47:00;2.07;;;0.90;;
43146;SDS011;28752;48.266;7.402;2022-07-09T13:54:16;1.30;;;0.70;;
43146;SDS011;28752;48.266;7.402;2022-07-09T14:01:33;1.33;;;0.70;;
43146;SDS011;28752;48.266;7.402;2022-07-09T14:08:50;2.15;;;0.98;;
43146;SDS011;28752;48.266;7.402;2022-07-09T14:13:41;2.17;;;1.00;;
43146;SDS011;28752;48.266;7.402;2022-07-09T14:16:08;2.90;;;1.20;;
43146;SDS011;28752;48.266;7.402;2022-07-09T14:20:59;2.15;;;1.10;;
43146;SDS011;28752;48.266;7.402;2022-07-09T14:25:50;2.63;;;0.93;;
43146;SDS011;28752;48.266;7.402;2022-07-09T14:30:41;2.70;;;1.00;;
43146;SDS011;28752;48.266;7.402;2022-07-09T14:33:07;1.17;;;0.77;;
43146;SDS011;28752;48.266;7.402;2022-07-09T14:40:23;1.63;;;0.90;;
43146;SDS011;28752;48.266;7.402;2022-07-09T14:42:49;2.88;;;1.00;;
43146;SDS011;28752;48.266;7.402;2022-07-09T14:47:40;1.05;;;0.70;;
43146;SDS011;28752;48.266;7.402;2022-07-09T14:57:21;1.50;;;0.80;;
43146;SDS011;28752;48.266;7.402;2022-07-09T14:59:48;2.58;;;1.52;;
43146;SDS011;28752;48.266;7.402;2022-07-09T15:07:04;1.67;;;0.80;;
43146;SDS011;28752;48.266;7.402;2022-07-09T15:14:21;1.87;;;0.80;;
43146;SDS011;28752;48.266;7.402;2022-07-09T15:16:47;1.63;;;1.00;;
43146;SDS011;28752;48.266;7.402;2022-07-09T15:21:38;1.60;;;0.80;;
43146;SDS011;28752;48.266;7.402;2022-07-09T15:28:54;1.63;;;0.80;;
43146;SDS011;28752;48.266;7.402;2022-07-09T15:33:47;1.83;;;0.98;;
43146;SDS011;28752;48.266;7.402;2022-07-09T15:38:38;1.73;;;1.00;;
43146;SDS011;28752;48.266;7.402;2022-07-09T15:43:31;1.80;;;0.90;;
43146;SDS011;28752;48.266;7.402;2022-07-09T15:48:21;1.60;;;0.70;;
43146;SDS011;28752;48.266;7.402;2022-07-09T15:50:48;1.58;;;0.80;;
43146;SDS011;28752;48.266;7.402;2022-07-09T15:53:14;2.38;;;1.50;;
43146;SDS011;28752;48.266;7.402;2022-07-09T15:58:05;1.17;;;0.80;;
43146;SDS011;28752;48.266;7.402;2022-07-09T16:02:55;3.10;;;1.67;;
43146;SDS011;28752;48.266;7.402;2022-07-09T16:07:46;1.55;;;0.90;;
43146;SDS011;28752;48.266;7.402;2022-07-09T16:12:37;1.13;;;0.75;;
43146;SDS011;28752;48.266;7.402;2022-07-09T16:15:18;1.48;;;0.90;;
43146;SDS011;28752;48.266;7.402;2022-07-09T16:17:45;5.13;;;1.23;;
43146;SDS011;28752;48.266;7.402;2022-07-09T16:20:12;1.98;;;1.00;;
43146;SDS011;28752;48.266;7.402;2022-07-09T16:22:39;1.95;;;1.00;;
43146;SDS011;28752;48.266;7.402;2022-07-09T16:25:05;1.23;;;0.82;;
43146;SDS011;28752;48.266;7.402;2022-07-09T16:29:55;1.83;;;0.70;;
43146;SDS011;28752;48.266;7.402;2022-07-09T16:34:46;1.43;;;0.90;;
43146;SDS011;28752;48.266;7.402;2022-07-09T16:39:37;1.50;;;0.90;;
43146;SDS011;28752;48.266;7.402;2022-07-09T16:44:28;1.50;;;0.95;;
43146;SDS011;28752;48.266;7.402;2022-07-09T16:49:19;0.93;;;0.70;;
43146;SDS011;28752;48.266;7.402;2022-07-09T16:54:10;1.13;;;0.70;;
43146;SDS011;28752;48.266;7.402;2022-07-09T16:59:04;2.60;;;0.98;;
43146;SDS011;28752;48.266;7.402;2022-07-09T17:01:30;1.58;;;0.90;;
43146;SDS011;28752;48.266;7.402;2022-07-09T17:06:21;1.27;;;1.05;;
43146;SDS011;28752;48.266;7.402;2022-07-09T17:11:12;1.73;;;0.90;;
43146;SDS011;28752;48.266;7.402;2022-07-09T17:16:02;1.03;;;0.77;;
43146;SDS011;28752;48.266;7.402;2022-07-09T17:23:18;1.93;;;0.90;;
43146;SDS011;28752;48.266;7.402;2022-07-09T17:28:10;1.83;;;0.90;;
43146;SDS011;28752;48.266;7.402;2022-07-09T17:33:01;2.35;;;0.90;;
43146;SDS011;28752;48.266;7.402;2022-07-09T17:37:53;2.00;;;0.80;;
43146;SDS011;28752;48.266;7.402;2022-07-09T17:40:21;1.10;;;0.75;;
43146;SDS011;28752;48.266;7.402;2022-07-09T17:42:46;2.17;;;1.10;;
43146;SDS011;28752;48.266;7.402;2022-07-09T17:50:03;1.00;;;0.70;;
43146;SDS011;28752;48.266;7.402;2022-07-09T17:54:57;1.70;;;1.00;;
43146;SDS011;28752;48.266;7.402;2022-07-09T17:57:42;4.25;;;1.63;;
43146;SDS011;28752;48.266;7.402;2022-07-09T18:00:08;2.13;;;1.05;;
43146;SDS011;28752;48.266;7.402;2022-07-09T18:02:35;2.40;;;1.20;;
43146;SDS011;28752;48.266;7.402;2022-07-09T18:09:51;1.50;;;1.03;;
43146;SDS011;28752;48.266;7.402;2022-07-09T18:14:44;2.20;;;1.08;;
43146;SDS011;28752;48.266;7.402;2022-07-09T18:19:35;1.43;;;0.83;;
43146;SDS011;28752;48.266;7.402;2022-07-09T18:22:01;1.55;;;0.88;;
43146;SDS011;28752;48.266;7.402;2022-07-09T18:26:52;1.98;;;0.90;;
43146;SDS011;28752;48.266;7.402;2022-07-09T18:29:18;1.42;;;1.00;;
43146;SDS011;28752;48.266;7.402;2022-07-09T18:31:44;4.45;;;2.38;;
43146;SDS011;28752;48.266;7.402;2022-07-09T18:34:09;4.72;;;2.42;;
43146;SDS011;28752;48.266;7.402;2022-07-09T18:39:00;3.97;;;1.70;;
43146;SDS011;28752;48.266;7.402;2022-07-09T18:41:26;6.95;;;3.13;;
43146;SDS011;28752;48.266;7.402;2022-07-09T18:43:51;3.97;;;1.77;;
43146;SDS011;28752;48.266;7.402;2022-07-09T18:46:17;1.73;;;1.02;;
43146;SDS011;28752;48.266;7.402;2022-07-09T18:51:08;0.95;;;0.80;;
43146;SDS011;28752;48.266;7.402;2022-07-09T18:53:33;1.65;;;1.02;;
43146;SDS011;28752;48.266;7.402;2022-07-09T18:55:59;1.63;;;1.05;;
43146;SDS011;28752;48.266;7.402;2022-07-09T19:00:49;1.93;;;0.80;;
43146;SDS011;28752;48.266;7.402;2022-07-09T19:03:15;1.65;;;0.77;;
43146;SDS011;28752;48.266;7.402;2022-07-09T19:05:40;1.27;;;0.80;;
43146;SDS011;28752;48.266;7.402;2022-07-09T19:10:31;2.93;;;1.13;;